Murray, Idaho
Current Conditions -  °F | °C
As of 11:04 AM on Thursday 23 Oct 2014 (Local Time) from KMLP Reporting Station
Moderate Rain Moderate Rain  
Wind Chill: 34°   Ceiling: 200
Heat Index: 40°   Visibility: 0.5mi
Dew Point: 40°   Wind: 9mph
Humidity: 100%   Direction: 230°SW
Pressure: 29.86"   Gusts: 23mph
Location:  47.63°N, 115.86°W
Report Text: KMLP 231804Z AUTO 23008G20KT 180V280 1/2SM RA FG BKN002 OVC006 04/04 A2986 RMK AO2 P0001 T00440044
Loading
Personal Weather Stations






























Interactive Weather Map
Tropical Storm Tracking
New forecast layout! Learn more

10-Day Weather Forecast

Advertisements
Track Severe Weather on mobile